sensor_id;sensor_type;location;lat;lon;timestamp;P1;durP1;ratioP1;P2;durP2;ratioP2
16845;SDS011;8539;53.188;8.696;2022-07-10T00:02:04;8.63;;;2.40;;
16845;SDS011;8539;53.188;8.696;2022-07-10T00:04:30;7.43;;;1.88;;
16845;SDS011;8539;53.188;8.696;2022-07-10T00:06:57;5.57;;;1.42;;
16845;SDS011;8539;53.188;8.696;2022-07-10T00:09:24;5.20;;;1.15;;
16845;SDS011;8539;53.188;8.696;2022-07-10T00:11:50;9.13;;;2.10;;
16845;SDS011;8539;53.188;8.696;2022-07-10T00:14:17;5.25;;;1.65;;
16845;SDS011;8539;53.188;8.696;2022-07-10T00:16:43;5.60;;;1.98;;
16845;SDS011;8539;53.188;8.696;2022-07-10T00:19:09;6.68;;;1.40;;
16845;SDS011;8539;53.188;8.696;2022-07-10T00:21:35;5.70;;;1.33;;
16845;SDS011;8539;53.188;8.696;2022-07-10T00:24:02;9.45;;;2.00;;
16845;SDS011;8539;53.188;8.696;2022-07-10T00:26:31;6.68;;;1.50;;
16845;SDS011;8539;53.188;8.696;2022-07-10T00:28:59;5.28;;;1.10;;
16845;SDS011;8539;53.188;8.696;2022-07-10T00:31:26;4.93;;;1.17;;
16845;SDS011;8539;53.188;8.696;2022-07-10T00:33:54;5.80;;;1.13;;
16845;SDS011;8539;53.188;8.696;2022-07-10T00:36:20;3.00;;;1.52;;
16845;SDS011;8539;53.188;8.696;2022-07-10T00:38:46;8.52;;;1.23;;
16845;SDS011;8539;53.188;8.696;2022-07-10T00:41:13;5.25;;;1.38;;
16845;SDS011;8539;53.188;8.696;2022-07-10T00:43:55;2.65;;;0.95;;
16845;SDS011;8539;53.188;8.696;2022-07-10T00:46:25;6.45;;;1.40;;
16845;SDS011;8539;53.188;8.696;2022-07-10T00:48:52;3.05;;;1.15;;
16845;SDS011;8539;53.188;8.696;2022-07-10T00:51:19;4.63;;;1.40;;
16845;SDS011;8539;53.188;8.696;2022-07-10T00:53:48;6.40;;;1.30;;
16845;SDS011;8539;53.188;8.696;2022-07-10T00:56:18;5.20;;;1.60;;
16845;SDS011;8539;53.188;8.696;2022-07-10T00:58:51;5.28;;;1.70;;
16845;SDS011;8539;53.188;8.696;2022-07-10T01:01:17;3.08;;;1.00;;
16845;SDS011;8539;53.188;8.696;2022-07-10T01:03:45;5.22;;;1.42;;
16845;SDS011;8539;53.188;8.696;2022-07-10T01:06:15;4.22;;;1.13;;
16845;SDS011;8539;53.188;8.696;2022-07-10T01:08:44;5.85;;;1.50;;
16845;SDS011;8539;53.188;8.696;2022-07-10T01:11:10;4.75;;;1.20;;
16845;SDS011;8539;53.188;8.696;2022-07-10T01:13:39;7.25;;;1.23;;
16845;SDS011;8539;53.188;8.696;2022-07-10T01:16:06;9.10;;;1.95;;
16845;SDS011;8539;53.188;8.696;2022-07-10T01:18:32;3.80;;;1.23;;
16845;SDS011;8539;53.188;8.696;2022-07-10T01:20:59;9.27;;;2.17;;
16845;SDS011;8539;53.188;8.696;2022-07-10T01:23:25;5.57;;;1.58;;
16845;SDS011;8539;53.188;8.696;2022-07-10T01:25:52;3.63;;;1.10;;
16845;SDS011;8539;53.188;8.696;2022-07-10T01:28:19;5.60;;;1.45;;
16845;SDS011;8539;53.188;8.696;2022-07-10T01:30:48;9.07;;;2.17;;
16845;SDS011;8539;53.188;8.696;2022-07-10T01:33:15;5.22;;;1.38;;
16845;SDS011;8539;53.188;8.696;2022-07-10T01:35:41;4.25;;;1.48;;
16845;SDS011;8539;53.188;8.696;2022-07-10T01:38:08;8.70;;;1.70;;
16845;SDS011;8539;53.188;8.696;2022-07-10T01:40:34;5.95;;;1.25;;
16845;SDS011;8539;53.188;8.696;2022-07-10T01:43:00;5.95;;;1.38;;
16845;SDS011;8539;53.188;8.696;2022-07-10T01:45:27;12.25;;;1.40;;
16845;SDS011;8539;53.188;8.696;2022-07-10T01:47:53;5.78;;;1.70;;
16845;SDS011;8539;53.188;8.696;2022-07-10T01:50:19;6.35;;;1.67;;
16845;SDS011;8539;53.188;8.696;2022-07-10T01:52:45;4.30;;;1.48;;
16845;SDS011;8539;53.188;8.696;2022-07-10T01:55:12;4.80;;;1.77;;
16845;SDS011;8539;53.188;8.696;2022-07-10T01:57:38;11.18;;;1.83;;
16845;SDS011;8539;53.188;8.696;2022-07-10T02:00:04;6.35;;;1.42;;
16845;SDS011;8539;53.188;8.696;2022-07-10T02:02:32;6.13;;;2.13;;
16845;SDS011;8539;53.188;8.696;2022-07-10T02:04:58;6.05;;;1.88;;
16845;SDS011;8539;53.188;8.696;2022-07-10T02:07:24;3.15;;;0.98;;
16845;SDS011;8539;53.188;8.696;2022-07-10T02:09:52;8.38;;;1.10;;
16845;SDS011;8539;53.188;8.696;2022-07-10T02:12:18;7.55;;;2.65;;
16845;SDS011;8539;53.188;8.696;2022-07-10T02:14:44;7.20;;;1.70;;
16845;SDS011;8539;53.188;8.696;2022-07-10T02:17:10;9.18;;;1.80;;
16845;SDS011;8539;53.188;8.696;2022-07-10T02:19:39;4.47;;;1.40;;
16845;SDS011;8539;53.188;8.696;2022-07-10T02:22:05;10.07;;;2.20;;
16845;SDS011;8539;53.188;8.696;2022-07-10T02:24:31;5.90;;;1.42;;
16845;SDS011;8539;53.188;8.696;2022-07-10T02:26:57;3.80;;;1.00;;
16845;SDS011;8539;53.188;8.696;2022-07-10T02:29:26;3.55;;;1.25;;
16845;SDS011;8539;53.188;8.696;2022-07-10T02:31:52;7.18;;;1.55;;
16845;SDS011;8539;53.188;8.696;2022-07-10T02:34:18;5.55;;;1.30;;
16845;SDS011;8539;53.188;8.696;2022-07-10T02:36:45;2.67;;;1.33;;
16845;SDS011;8539;53.188;8.696;2022-07-10T02:39:11;7.70;;;1.95;;
16845;SDS011;8539;53.188;8.696;2022-07-10T02:41:37;7.07;;;1.88;;
16845;SDS011;8539;53.188;8.696;2022-07-10T02:44:03;7.05;;;1.60;;
16845;SDS011;8539;53.188;8.696;2022-07-10T02:46:30;8.57;;;1.50;;
16845;SDS011;8539;53.188;8.696;2022-07-10T02:48:56;5.85;;;1.52;;
16845;SDS011;8539;53.188;8.696;2022-07-10T02:51:22;8.90;;;2.70;;
16845;SDS011;8539;53.188;8.696;2022-07-10T02:53:49;5.90;;;2.58;;
16845;SDS011;8539;53.188;8.696;2022-07-10T02:56:15;9.55;;;1.77;;
16845;SDS011;8539;53.188;8.696;2022-07-10T02:58:42;5.85;;;1.75;;
16845;SDS011;8539;53.188;8.696;2022-07-10T03:01:08;7.28;;;1.55;;
16845;SDS011;8539;53.188;8.696;2022-07-10T03:03:35;8.02;;;1.98;;
16845;SDS011;8539;53.188;8.696;2022-07-10T03:06:01;7.35;;;1.55;;
16845;SDS011;8539;53.188;8.696;2022-07-10T03:08:27;15.40;;;2.10;;
16845;SDS011;8539;53.188;8.696;2022-07-10T03:10:54;9.10;;;1.95;;
16845;SDS011;8539;53.188;8.696;2022-07-10T03:13:20;8.75;;;1.90;;
16845;SDS011;8539;53.188;8.696;2022-07-10T03:15:47;7.90;;;2.45;;
16845;SDS011;8539;53.188;8.696;2022-07-10T03:18:14;6.88;;;1.80;;
16845;SDS011;8539;53.188;8.696;2022-07-10T03:20:40;12.13;;;1.52;;
16845;SDS011;8539;53.188;8.696;2022-07-10T03:23:06;9.18;;;2.78;;
16845;SDS011;8539;53.188;8.696;2022-07-10T03:25:32;15.32;;;2.65;;
16845;SDS011;8539;53.188;8.696;2022-07-10T03:27:58;4.28;;;1.60;;
16845;SDS011;8539;53.188;8.696;2022-07-10T03:30:25;10.10;;;2.30;;
16845;SDS011;8539;53.188;8.696;2022-07-10T03:32:52;5.55;;;2.00;;
16845;SDS011;8539;53.188;8.696;2022-07-10T03:35:19;5.43;;;1.48;;
16845;SDS011;8539;53.188;8.696;2022-07-10T03:37:45;8.60;;;1.98;;
16845;SDS011;8539;53.188;8.696;2022-07-10T03:40:11;8.00;;;1.90;;
16845;SDS011;8539;53.188;8.696;2022-07-10T03:42:37;10.27;;;1.90;;
16845;SDS011;8539;53.188;8.696;2022-07-10T03:45:04;7.47;;;2.08;;
16845;SDS011;8539;53.188;8.696;2022-07-10T03:47:30;8.18;;;2.00;;
16845;SDS011;8539;53.188;8.696;2022-07-10T03:49:56;8.30;;;1.50;;
16845;SDS011;8539;53.188;8.696;2022-07-10T03:52:23;5.78;;;1.60;;
16845;SDS011;8539;53.188;8.696;2022-07-10T03:54:50;3.42;;;1.33;;
16845;SDS011;8539;53.188;8.696;2022-07-10T03:57:16;7.68;;;1.63;;
16845;SDS011;8539;53.188;8.696;2022-07-10T04:00:01;8.10;;;1.80;;
16845;SDS011;8539;53.188;8.696;2022-07-10T04:02:27;8.85;;;1.60;;
16845;SDS011;8539;53.188;8.696;2022-07-10T04:04:53;5.32;;;1.50;;
16845;SDS011;8539;53.188;8.696;2022-07-10T04:07:20;5.55;;;1.70;;
16845;SDS011;8539;53.188;8.696;2022-07-10T04:09:47;8.88;;;2.00;;
16845;SDS011;8539;53.188;8.696;2022-07-10T04:12:13;6.90;;;1.98;;
16845;SDS011;8539;53.188;8.696;2022-07-10T04:14:39;5.13;;;1.40;;
16845;SDS011;8539;53.188;8.696;2022-07-10T04:17:05;12.82;;;2.28;;
16845;SDS011;8539;53.188;8.696;2022-07-10T04:19:32;3.22;;;1.45;;
16845;SDS011;8539;53.188;8.696;2022-07-10T04:21:58;5.78;;;1.48;;
16845;SDS011;8539;53.188;8.696;2022-07-10T04:24:24;8.05;;;2.33;;
16845;SDS011;8539;53.188;8.696;2022-07-10T04:26:51;9.32;;;1.58;;
16845;SDS011;8539;53.188;8.696;2022-07-10T04:29:17;11.75;;;2.38;;
16845;SDS011;8539;53.188;8.696;2022-07-10T04:31:43;4.07;;;2.20;;
16845;SDS011;8539;53.188;8.696;2022-07-10T04:34:09;10.10;;;1.92;;
16845;SDS011;8539;53.188;8.696;2022-07-10T04:36:35;5.22;;;2.28;;
16845;SDS011;8539;53.188;8.696;2022-07-10T04:39:02;7.30;;;1.85;;
16845;SDS011;8539;53.188;8.696;2022-07-10T04:41:28;5.13;;;1.25;;
16845;SDS011;8539;53.188;8.696;2022-07-10T04:43:55;4.82;;;1.42;;
16845;SDS011;8539;53.188;8.696;2022-07-10T04:46:21;9.27;;;1.90;;
16845;SDS011;8539;53.188;8.696;2022-07-10T04:48:47;11.02;;;1.95;;
16845;SDS011;8539;53.188;8.696;2022-07-10T04:51:13;4.57;;;1.95;;
16845;SDS011;8539;53.188;8.696;2022-07-10T04:53:39;7.15;;;2.20;;
16845;SDS011;8539;53.188;8.696;2022-07-10T04:56:06;3.53;;;1.70;;
16845;SDS011;8539;53.188;8.696;2022-07-10T04:58:32;9.95;;;1.90;;
16845;SDS011;8539;53.188;8.696;2022-07-10T05:00:59;8.50;;;1.73;;
16845;SDS011;8539;53.188;8.696;2022-07-10T05:03:25;5.53;;;1.50;;
16845;SDS011;8539;53.188;8.696;2022-07-10T05:05:51;8.38;;;1.50;;
16845;SDS011;8539;53.188;8.696;2022-07-10T05:08:17;6.20;;;1.90;;
16845;SDS011;8539;53.188;8.696;2022-07-10T05:10:44;12.98;;;2.42;;
16845;SDS011;8539;53.188;8.696;2022-07-10T05:13:10;9.57;;;2.50;;
16845;SDS011;8539;53.188;8.696;2022-07-10T05:15:37;10.40;;;2.55;;
16845;SDS011;8539;53.188;8.696;2022-07-10T05:18:04;10.57;;;2.95;;
16845;SDS011;8539;53.188;8.696;2022-07-10T05:20:30;10.30;;;1.90;;
16845;SDS011;8539;53.188;8.696;2022-07-10T05:22:57;8.35;;;3.00;;
16845;SDS011;8539;53.188;8.696;2022-07-10T05:25:23;4.38;;;2.20;;
16845;SDS011;8539;53.188;8.696;2022-07-10T05:27:52;12.48;;;2.75;;
16845;SDS011;8539;53.188;8.696;2022-07-10T05:30:18;11.07;;;3.08;;
16845;SDS011;8539;53.188;8.696;2022-07-10T05:32:44;10.18;;;2.40;;
16845;SDS011;8539;53.188;8.696;2022-07-10T05:35:11;6.35;;;2.25;;
16845;SDS011;8539;53.188;8.696;2022-07-10T05:37:39;9.95;;;2.70;;
16845;SDS011;8539;53.188;8.696;2022-07-10T05:40:05;6.57;;;1.50;;
16845;SDS011;8539;53.188;8.696;2022-07-10T05:42:33;7.00;;;1.70;;
16845;SDS011;8539;53.188;8.696;2022-07-10T05:45:00;8.02;;;1.70;;
16845;SDS011;8539;53.188;8.696;2022-07-10T05:47:26;7.68;;;1.63;;
16845;SDS011;8539;53.188;8.696;2022-07-10T05:49:52;5.88;;;2.28;;
16845;SDS011;8539;53.188;8.696;2022-07-10T05:52:19;11.63;;;2.42;;
16845;SDS011;8539;53.188;8.696;2022-07-10T05:54:45;6.55;;;2.53;;
16845;SDS011;8539;53.188;8.696;2022-07-10T05:57:11;10.27;;;2.15;;
16845;SDS011;8539;53.188;8.696;2022-07-10T05:59:38;10.73;;;2.45;;
16845;SDS011;8539;53.188;8.696;2022-07-10T06:02:04;9.45;;;2.83;;
16845;SDS011;8539;53.188;8.696;2022-07-10T06:04:30;8.82;;;2.20;;
16845;SDS011;8539;53.188;8.696;2022-07-10T06:06:57;4.57;;;1.60;;
16845;SDS011;8539;53.188;8.696;2022-07-10T06:09:23;11.63;;;2.72;;
16845;SDS011;8539;53.188;8.696;2022-07-10T06:11:49;12.40;;;2.72;;
16845;SDS011;8539;53.188;8.696;2022-07-10T06:14:16;6.60;;;2.08;;
16845;SDS011;8539;53.188;8.696;2022-07-10T06:16:42;8.23;;;2.50;;
16845;SDS011;8539;53.188;8.696;2022-07-10T06:19:08;9.23;;;2.42;;
16845;SDS011;8539;53.188;8.696;2022-07-10T06:21:35;9.48;;;2.40;;
16845;SDS011;8539;53.188;8.696;2022-07-10T06:24:02;8.00;;;2.35;;
16845;SDS011;8539;53.188;8.696;2022-07-10T06:26:29;10.50;;;1.95;;
16845;SDS011;8539;53.188;8.696;2022-07-10T06:28:55;11.02;;;2.35;;
16845;SDS011;8539;53.188;8.696;2022-07-10T06:31:21;8.40;;;2.78;;
16845;SDS011;8539;53.188;8.696;2022-07-10T06:33:48;9.35;;;1.92;;
16845;SDS011;8539;53.188;8.696;2022-07-10T06:36:14;10.32;;;2.92;;
16845;SDS011;8539;53.188;8.696;2022-07-10T06:38:40;7.13;;;2.25;;
16845;SDS011;8539;53.188;8.696;2022-07-10T06:41:07;5.50;;;1.70;;
16845;SDS011;8539;53.188;8.696;2022-07-10T06:43:33;8.15;;;2.47;;
16845;SDS011;8539;53.188;8.696;2022-07-10T06:46:00;5.35;;;2.17;;
16845;SDS011;8539;53.188;8.696;2022-07-10T06:48:26;12.43;;;3.30;;
16845;SDS011;8539;53.188;8.696;2022-07-10T06:50:53;10.05;;;2.33;;
16845;SDS011;8539;53.188;8.696;2022-07-10T06:53:19;12.70;;;2.92;;
16845;SDS011;8539;53.188;8.696;2022-07-10T06:55:52;13.32;;;2.42;;
16845;SDS011;8539;53.188;8.696;2022-07-10T06:58:19;8.60;;;2.70;;
16845;SDS011;8539;53.188;8.696;2022-07-10T07:00:45;8.43;;;2.70;;
16845;SDS011;8539;53.188;8.696;2022-07-10T07:03:11;8.27;;;2.33;;
16845;SDS011;8539;53.188;8.696;2022-07-10T07:05:38;11.80;;;2.67;;
16845;SDS011;8539;53.188;8.696;2022-07-10T07:08:04;18.23;;;3.20;;
16845;SDS011;8539;53.188;8.696;2022-07-10T07:10:31;9.27;;;2.65;;
16845;SDS011;8539;53.188;8.696;2022-07-10T07:12:57;11.15;;;3.25;;
16845;SDS011;8539;53.188;8.696;2022-07-10T07:15:28;7.95;;;2.85;;
16845;SDS011;8539;53.188;8.696;2022-07-10T07:17:55;12.98;;;2.92;;
16845;SDS011;8539;53.188;8.696;2022-07-10T07:20:34;13.10;;;3.03;;
16845;SDS011;8539;53.188;8.696;2022-07-10T07:23:19;9.63;;;3.45;;
16845;SDS011;8539;53.188;8.696;2022-07-10T07:25:48;11.00;;;2.78;;
16845;SDS011;8539;53.188;8.696;2022-07-10T07:28:14;8.15;;;2.40;;
16845;SDS011;8539;53.188;8.696;2022-07-10T07:30:41;11.10;;;3.15;;
16845;SDS011;8539;53.188;8.696;2022-07-10T07:33:08;8.25;;;2.33;;
16845;SDS011;8539;53.188;8.696;2022-07-10T07:35:34;11.85;;;3.95;;
16845;SDS011;8539;53.188;8.696;2022-07-10T07:38:02;11.30;;;2.38;;
16845;SDS011;8539;53.188;8.696;2022-07-10T07:40:28;17.38;;;3.40;;
16845;SDS011;8539;53.188;8.696;2022-07-10T07:42:55;8.00;;;2.83;;
16845;SDS011;8539;53.188;8.696;2022-07-10T07:45:22;9.43;;;2.72;;
16845;SDS011;8539;53.188;8.696;2022-07-10T07:47:53;8.93;;;2.17;;
16845;SDS011;8539;53.188;8.696;2022-07-10T07:50:21;7.53;;;2.92;;
16845;SDS011;8539;53.188;8.696;2022-07-10T07:52:51;7.80;;;1.85;;
16845;SDS011;8539;53.188;8.696;2022-07-10T07:55:19;12.68;;;2.00;;
16845;SDS011;8539;53.188;8.696;2022-07-10T07:57:47;11.90;;;3.00;;
16845;SDS011;8539;53.188;8.696;2022-07-10T08:00:14;9.43;;;2.33;;
16845;SDS011;8539;53.188;8.696;2022-07-10T08:02:43;8.95;;;3.45;;
16845;SDS011;8539;53.188;8.696;2022-07-10T08:05:09;6.75;;;2.42;;
16845;SDS011;8539;53.188;8.696;2022-07-10T08:07:39;20.30;;;3.60;;
16845;SDS011;8539;53.188;8.696;2022-07-10T08:10:14;15.90;;;2.42;;
16845;SDS011;8539;53.188;8.696;2022-07-10T08:12:42;10.82;;;2.00;;
16845;SDS011;8539;53.188;8.696;2022-07-10T08:15:11;8.15;;;2.25;;
16845;SDS011;8539;53.188;8.696;2022-07-10T08:17:38;10.40;;;2.38;;
16845;SDS011;8539;53.188;8.696;2022-07-10T08:20:06;7.53;;;2.83;;
16845;SDS011;8539;53.188;8.696;2022-07-10T08:22:34;9.07;;;2.25;;
16845;SDS011;8539;53.188;8.696;2022-07-10T08:25:00;11.23;;;2.42;;
16845;SDS011;8539;53.188;8.696;2022-07-10T08:27:26;15.45;;;2.42;;
16845;SDS011;8539;53.188;8.696;2022-07-10T08:29:53;10.05;;;2.58;;
16845;SDS011;8539;53.188;8.696;2022-07-10T08:32:19;5.95;;;1.73;;
16845;SDS011;8539;53.188;8.696;2022-07-10T08:34:45;10.80;;;2.55;;
16845;SDS011;8539;53.188;8.696;2022-07-10T08:37:11;7.32;;;2.42;;
16845;SDS011;8539;53.188;8.696;2022-07-10T08:39:38;6.25;;;2.20;;
16845;SDS011;8539;53.188;8.696;2022-07-10T08:42:05;6.25;;;1.70;;
16845;SDS011;8539;53.188;8.696;2022-07-10T08:44:33;11.30;;;1.80;;
16845;SDS011;8539;53.188;8.696;2022-07-10T08:46:59;5.30;;;1.73;;
16845;SDS011;8539;53.188;8.696;2022-07-10T08:49:28;9.45;;;2.72;;
16845;SDS011;8539;53.188;8.696;2022-07-10T08:57:02;11.10;;;2.65;;
16845;SDS011;8539;53.188;8.696;2022-07-10T08:59:29;4.10;;;1.65;;
16845;SDS011;8539;53.188;8.696;2022-07-10T09:01:55;13.52;;;1.88;;
16845;SDS011;8539;53.188;8.696;2022-07-10T09:04:22;7.00;;;2.00;;
16845;SDS011;8539;53.188;8.696;2022-07-10T09:06:51;7.80;;;1.95;;
16845;SDS011;8539;53.188;8.696;2022-07-10T09:09:18;12.18;;;2.08;;
16845;SDS011;8539;53.188;8.696;2022-07-10T09:11:45;9.50;;;2.08;;
16845;SDS011;8539;53.188;8.696;2022-07-10T09:14:13;8.40;;;1.55;;
16845;SDS011;8539;53.188;8.696;2022-07-10T09:16:41;6.05;;;1.60;;
16845;SDS011;8539;53.188;8.696;2022-07-10T09:19:16;6.25;;;1.55;;
16845;SDS011;8539;53.188;8.696;2022-07-10T09:22:11;5.88;;;2.22;;
16845;SDS011;8539;53.188;8.696;2022-07-10T09:27:04;6.38;;;1.42;;
16845;SDS011;8539;53.188;8.696;2022-07-10T09:29:31;7.75;;;1.52;;
16845;SDS011;8539;53.188;8.696;2022-07-10T09:32:05;8.10;;;1.80;;
16845;SDS011;8539;53.188;8.696;2022-07-10T09:39:58;9.05;;;1.52;;
16845;SDS011;8539;53.188;8.696;2022-07-10T09:42:33;11.50;;;2.13;;
16845;SDS011;8539;53.188;8.696;2022-07-10T09:47:39;15.65;;;2.45;;
16845;SDS011;8539;53.188;8.696;2022-07-10T09:50:20;7.50;;;1.98;;
16845;SDS011;8539;53.188;8.696;2022-07-10T09:55:24;9.52;;;2.25;;
16845;SDS011;8539;53.188;8.696;2022-07-10T09:57:53;4.50;;;2.08;;
16845;SDS011;8539;53.188;8.696;2022-07-10T10:00:22;6.25;;;2.00;;
16845;SDS011;8539;53.188;8.696;2022-07-10T10:02:56;6.65;;;2.22;;
16845;SDS011;8539;53.188;8.696;2022-07-10T10:05:37;5.05;;;1.95;;
16845;SDS011;8539;53.188;8.696;2022-07-10T10:08:30;10.82;;;2.72;;
16845;SDS011;8539;53.188;8.696;2022-07-10T10:11:03;5.93;;;2.25;;
16845;SDS011;8539;53.188;8.696;2022-07-10T10:13:32;10.23;;;1.98;;
16845;SDS011;8539;53.188;8.696;2022-07-10T10:16:00;7.57;;;1.88;;
16845;SDS011;8539;53.188;8.696;2022-07-10T10:18:27;6.40;;;1.83;;
16845;SDS011;8539;53.188;8.696;2022-07-10T10:20:55;5.30;;;2.75;;
16845;SDS011;8539;53.188;8.696;2022-07-10T10:23:22;10.15;;;2.38;;
16845;SDS011;8539;53.188;8.696;2022-07-10T10:25:51;6.30;;;1.73;;
16845;SDS011;8539;53.188;8.696;2022-07-10T10:28:22;6.75;;;2.17;;
16845;SDS011;8539;53.188;8.696;2022-07-10T10:30:53;8.10;;;2.75;;
16845;SDS011;8539;53.188;8.696;2022-07-10T10:36:08;14.15;;;2.55;;
16845;SDS011;8539;53.188;8.696;2022-07-10T10:41:25;9.18;;;2.58;;
16845;SDS011;8539;53.188;8.696;2022-07-10T10:47:00;10.40;;;2.30;;
16845;SDS011;8539;53.188;8.696;2022-07-10T10:49:48;13.30;;;3.22;;
16845;SDS011;8539;53.188;8.696;2022-07-10T10:52:27;10.05;;;2.67;;
16845;SDS011;8539;53.188;8.696;2022-07-10T10:57:23;7.45;;;1.98;;
16845;SDS011;8539;53.188;8.696;2022-07-10T11:00:06;7.93;;;2.22;;
16845;SDS011;8539;53.188;8.696;2022-07-10T11:02:34;7.63;;;1.98;;
16845;SDS011;8539;53.188;8.696;2022-07-10T11:07:54;5.32;;;1.85;;
16845;SDS011;8539;53.188;8.696;2022-07-10T11:15:42;7.80;;;2.47;;
16845;SDS011;8539;53.188;8.696;2022-07-10T11:18:12;6.43;;;1.88;;
16845;SDS011;8539;53.188;8.696;2022-07-10T11:20:50;7.82;;;2.50;;
16845;SDS011;8539;53.188;8.696;2022-07-10T11:25:59;5.85;;;2.28;;
16845;SDS011;8539;53.188;8.696;2022-07-10T11:31:04;7.57;;;1.75;;
16845;SDS011;8539;53.188;8.696;2022-07-10T11:33:30;9.38;;;3.03;;
16845;SDS011;8539;53.188;8.696;2022-07-10T11:36:15;6.75;;;2.15;;
16845;SDS011;8539;53.188;8.696;2022-07-10T11:38:44;6.15;;;2.15;;
16845;SDS011;8539;53.188;8.696;2022-07-10T11:41:13;9.50;;;2.15;;
16845;SDS011;8539;53.188;8.696;2022-07-10T11:43:48;7.53;;;2.42;;
16845;SDS011;8539;53.188;8.696;2022-07-10T11:46:14;9.88;;;2.63;;
16845;SDS011;8539;53.188;8.696;2022-07-10T11:48:41;4.65;;;1.83;;
16845;SDS011;8539;53.188;8.696;2022-07-10T11:51:17;8.73;;;2.67;;
16845;SDS011;8539;53.188;8.696;2022-07-10T11:53:53;8.35;;;2.50;;
16845;SDS011;8539;53.188;8.696;2022-07-10T11:56:20;6.68;;;1.83;;
16845;SDS011;8539;53.188;8.696;2022-07-10T11:59:03;14.75;;;3.22;;
16845;SDS011;8539;53.188;8.696;2022-07-10T12:01:32;7.85;;;2.35;;
16845;SDS011;8539;53.188;8.696;2022-07-10T12:04:06;5.80;;;1.65;;
16845;SDS011;8539;53.188;8.696;2022-07-10T12:06:35;4.00;;;1.90;;
16845;SDS011;8539;53.188;8.696;2022-07-10T12:09:04;3.63;;;1.33;;
16845;SDS011;8539;53.188;8.696;2022-07-10T12:11:33;5.55;;;1.60;;
16845;SDS011;8539;53.188;8.696;2022-07-10T12:16:44;7.80;;;1.75;;
16845;SDS011;8539;53.188;8.696;2022-07-10T12:19:13;4.53;;;1.70;;
16845;SDS011;8539;53.188;8.696;2022-07-10T12:21:41;5.63;;;1.60;;
16845;SDS011;8539;53.188;8.696;2022-07-10T12:24:08;5.72;;;1.60;;
16845;SDS011;8539;53.188;8.696;2022-07-10T12:26:37;4.68;;;1.45;;
16845;SDS011;8539;53.188;8.696;2022-07-10T12:29:11;4.22;;;1.85;;
16845;SDS011;8539;53.188;8.696;2022-07-10T12:31:44;6.38;;;1.42;;
16845;SDS011;8539;53.188;8.696;2022-07-10T12:34:13;5.35;;;1.38;;
16845;SDS011;8539;53.188;8.696;2022-07-10T12:36:46;8.38;;;1.80;;
16845;SDS011;8539;53.188;8.696;2022-07-10T12:39:14;6.35;;;1.35;;
16845;SDS011;8539;53.188;8.696;2022-07-10T12:41:58;3.92;;;1.25;;
16845;SDS011;8539;53.188;8.696;2022-07-10T12:44:40;8.40;;;1.67;;
16845;SDS011;8539;53.188;8.696;2022-07-10T12:52:20;5.85;;;0.77;;
16845;SDS011;8539;53.188;8.696;2022-07-10T13:00:23;5.95;;;1.33;;
16845;SDS011;8539;53.188;8.696;2022-07-10T13:02:59;2.97;;;1.10;;
16845;SDS011;8539;53.188;8.696;2022-07-10T13:05:34;4.68;;;1.00;;
16845;SDS011;8539;53.188;8.696;2022-07-10T13:10:56;6.75;;;1.42;;
16845;SDS011;8539;53.188;8.696;2022-07-10T13:13:26;3.83;;;1.42;;
16845;SDS011;8539;53.188;8.696;2022-07-10T13:15:54;2.70;;;0.93;;
16845;SDS011;8539;53.188;8.696;2022-07-10T13:18:26;5.90;;;1.20;;
16845;SDS011;8539;53.188;8.696;2022-07-10T13:20:54;2.00;;;1.05;;
16845;SDS011;8539;53.188;8.696;2022-07-10T13:23:21;3.42;;;1.15;;
16845;SDS011;8539;53.188;8.696;2022-07-10T13:25:48;2.85;;;1.05;;
16845;SDS011;8539;53.188;8.696;2022-07-10T13:28:15;4.22;;;1.00;;
16845;SDS011;8539;53.188;8.696;2022-07-10T13:30:44;2.22;;;0.90;;
16845;SDS011;8539;53.188;8.696;2022-07-10T13:33:11;2.30;;;0.90;;
16845;SDS011;8539;53.188;8.696;2022-07-10T13:35:38;5.03;;;1.35;;
16845;SDS011;8539;53.188;8.696;2022-07-10T13:38:04;6.03;;;0.95;;
16845;SDS011;8539;53.188;8.696;2022-07-10T13:40:33;4.10;;;1.15;;
16845;SDS011;8539;53.188;8.696;2022-07-10T13:43:00;5.10;;;1.20;;
16845;SDS011;8539;53.188;8.696;2022-07-10T13:45:28;3.55;;;1.25;;
16845;SDS011;8539;53.188;8.696;2022-07-10T13:48:05;3.80;;;1.30;;
16845;SDS011;8539;53.188;8.696;2022-07-10T13:50:31;3.88;;;1.17;;
16845;SDS011;8539;53.188;8.696;2022-07-10T13:52:58;5.82;;;1.30;;
16845;SDS011;8539;53.188;8.696;2022-07-10T13:55:27;4.22;;;1.17;;
16845;SDS011;8539;53.188;8.696;2022-07-10T13:57:53;2.58;;;1.10;;
16845;SDS011;8539;53.188;8.696;2022-07-10T14:00:20;5.07;;;1.33;;
16845;SDS011;8539;53.188;8.696;2022-07-10T14:02:46;6.70;;;1.50;;
16845;SDS011;8539;53.188;8.696;2022-07-10T14:05:13;6.15;;;1.02;;
16845;SDS011;8539;53.188;8.696;2022-07-10T14:07:39;8.57;;;2.75;;
16845;SDS011;8539;53.188;8.696;2022-07-10T14:10:06;6.55;;;2.00;;
16845;SDS011;8539;53.188;8.696;2022-07-10T14:12:32;8.38;;;1.40;;
16845;SDS011;8539;53.188;8.696;2022-07-10T14:14:58;5.43;;;1.30;;
16845;SDS011;8539;53.188;8.696;2022-07-10T14:17:26;8.95;;;1.30;;
16845;SDS011;8539;53.188;8.696;2022-07-10T14:19:53;7.32;;;1.30;;
16845;SDS011;8539;53.188;8.696;2022-07-10T14:22:20;4.00;;;1.30;;
16845;SDS011;8539;53.188;8.696;2022-07-10T14:24:47;3.80;;;1.20;;
16845;SDS011;8539;53.188;8.696;2022-07-10T14:27:13;3.17;;;1.40;;
16845;SDS011;8539;53.188;8.696;2022-07-10T14:29:40;2.70;;;1.00;;
16845;SDS011;8539;53.188;8.696;2022-07-10T14:32:06;2.47;;;1.08;;
16845;SDS011;8539;53.188;8.696;2022-07-10T14:34:32;2.70;;;0.90;;
16845;SDS011;8539;53.188;8.696;2022-07-10T14:36:58;6.13;;;1.50;;
16845;SDS011;8539;53.188;8.696;2022-07-10T14:39:28;2.70;;;1.00;;
16845;SDS011;8539;53.188;8.696;2022-07-10T14:41:54;5.65;;;1.75;;
16845;SDS011;8539;53.188;8.696;2022-07-10T14:44:21;4.68;;;1.40;;
16845;SDS011;8539;53.188;8.696;2022-07-10T14:46:47;3.08;;;1.38;;
16845;SDS011;8539;53.188;8.696;2022-07-10T14:49:14;9.05;;;2.42;;
16845;SDS011;8539;53.188;8.696;2022-07-10T14:51:40;9.05;;;1.40;;
16845;SDS011;8539;53.188;8.696;2022-07-10T14:54:07;4.65;;;1.65;;
16845;SDS011;8539;53.188;8.696;2022-07-10T14:56:34;4.90;;;1.38;;
16845;SDS011;8539;53.188;8.696;2022-07-10T14:59:00;7.07;;;1.30;;
16845;SDS011;8539;53.188;8.696;2022-07-10T15:01:27;5.72;;;0.98;;
16845;SDS011;8539;53.188;8.696;2022-07-10T15:03:54;3.95;;;1.30;;
16845;SDS011;8539;53.188;8.696;2022-07-10T15:06:23;7.10;;;1.33;;
16845;SDS011;8539;53.188;8.696;2022-07-10T15:08:50;7.90;;;1.08;;
16845;SDS011;8539;53.188;8.696;2022-07-10T15:11:17;2.67;;;1.00;;
16845;SDS011;8539;53.188;8.696;2022-07-10T15:13:48;2.90;;;0.90;;
16845;SDS011;8539;53.188;8.696;2022-07-10T15:16:18;5.75;;;1.08;;
16845;SDS011;8539;53.188;8.696;2022-07-10T15:18:44;3.65;;;1.30;;
16845;SDS011;8539;53.188;8.696;2022-07-10T15:21:10;4.60;;;1.20;;
16845;SDS011;8539;53.188;8.696;2022-07-10T15:23:38;3.17;;;0.68;;
16845;SDS011;8539;53.188;8.696;2022-07-10T15:26:04;3.05;;;0.70;;
16845;SDS011;8539;53.188;8.696;2022-07-10T15:28:31;2.35;;;1.00;;
16845;SDS011;8539;53.188;8.696;2022-07-10T15:30:58;4.55;;;1.33;;
16845;SDS011;8539;53.188;8.696;2022-07-10T15:33:27;3.10;;;0.57;;
16845;SDS011;8539;53.188;8.696;2022-07-10T15:35:53;7.07;;;1.85;;
16845;SDS011;8539;53.188;8.696;2022-07-10T15:38:19;2.17;;;1.10;;
16845;SDS011;8539;53.188;8.696;2022-07-10T15:40:45;5.95;;;1.08;;
16845;SDS011;8539;53.188;8.696;2022-07-10T15:43:11;3.45;;;0.90;;
16845;SDS011;8539;53.188;8.696;2022-07-10T15:45:38;2.45;;;0.82;;
16845;SDS011;8539;53.188;8.696;2022-07-10T15:48:06;2.60;;;1.08;;
16845;SDS011;8539;53.188;8.696;2022-07-10T15:50:32;7.47;;;1.65;;
16845;SDS011;8539;53.188;8.696;2022-07-10T15:52:58;3.70;;;1.38;;
16845;SDS011;8539;53.188;8.696;2022-07-10T15:55:25;3.15;;;1.35;;
16845;SDS011;8539;53.188;8.696;2022-07-10T15:57:51;8.75;;;1.23;;
16845;SDS011;8539;53.188;8.696;2022-07-10T16:00:18;3.90;;;1.52;;
16845;SDS011;8539;53.188;8.696;2022-07-10T16:02:44;6.90;;;0.90;;